createdAt,value
2023-01-29T00:02:18.512Z,26.70
2023-01-29T00:05:28.450Z,27.10
2023-01-29T00:08:30.127Z,25.20
2023-01-29T00:11:31.559Z,28.60
2023-01-29T00:14:32.897Z,30.30
2023-01-29T00:17:34.762Z,30.90
2023-01-29T00:20:36.089Z,29.50
2023-01-29T00:23:37.779Z,29.30
2023-01-29T00:26:39.502Z,29.00
2023-01-29T00:29:41.202Z,32.00
2023-01-29T00:32:42.694Z,30.50
2023-01-29T00:35:44.624Z,33.60
2023-01-29T00:38:53.900Z,29.20
2023-01-29T00:42:13.709Z,32.80
2023-01-29T00:45:17.999Z,29.40
2023-01-29T00:48:20.482Z,28.50
2023-01-29T00:51:21.876Z,29.40
2023-01-29T00:54:23.271Z,27.20
2023-01-29T00:57:26.968Z,31.30
2023-01-29T01:00:28.750Z,29.90
2023-01-29T01:03:34.782Z,31.80
2023-01-29T01:06:38.121Z,28.20
2023-01-29T01:09:58.321Z,32.30
2023-01-29T01:13:02.342Z,25.70
2023-01-29T01:16:12.962Z,29.10
2023-01-29T01:19:15.706Z,28.70
2023-01-29T01:22:17.393Z,31.20
2023-01-29T01:25:19.394Z,29.90
2023-01-29T01:28:20.827Z,33.10
2023-01-29T01:31:22.421Z,31.50
2023-01-29T01:34:26.281Z,28.60
2023-01-29T01:37:27.692Z,30.60
2023-01-29T01:40:29.701Z,25.50
2023-01-29T01:43:49.147Z,31.30
2023-01-29T01:46:51.395Z,23.10
2023-01-29T01:49:55.454Z,27.00
2023-01-29T01:53:02.290Z,26.60
2023-01-29T01:56:13.927Z,29.40
2023-01-29T01:59:18.960Z,20.60
2023-01-29T02:02:39.537Z,27.80
2023-01-29T02:06:00.417Z,25.90
2023-01-29T02:09:26.296Z,23.60
2023-01-29T02:12:30.606Z,25.00
2023-01-29T02:15:33.891Z,28.30
2023-01-29T02:18:37.440Z,24.90
2023-01-29T02:21:43.657Z,26.10
2023-01-29T02:28:14.598Z,24.70
2023-01-29T02:31:24.829Z,26.40
2023-01-29T02:34:51.235Z,27.40
2023-01-29T02:38:08.247Z,23.60
2023-01-29T02:41:09.652Z,27.10
2023-01-29T02:44:27.268Z,23.60
2023-01-29T02:47:34.349Z,24.80
2023-01-29T02:50:35.666Z,22.60
2023-01-29T02:54:12.190Z,24.60
2023-01-29T02:57:22.327Z,25.80
2023-01-29T03:00:29.461Z,27.70
2023-01-29T03:03:39.032Z,29.20
2023-01-29T03:06:51.375Z,28.00
2023-01-29T03:09:54.330Z,25.30
2023-01-29T03:13:19.647Z,28.80
2023-01-29T03:16:42.026Z,31.60
2023-01-29T03:19:46.568Z,27.90
2023-01-29T03:23:05.213Z,25.80
2023-01-29T03:26:25.453Z,30.90
2023-01-29T03:29:49.869Z,24.80
2023-01-29T03:32:55.319Z,28.80
2023-01-29T03:36:08.455Z,25.70
2023-01-29T03:39:11.350Z,24.50
2023-01-29T03:42:21.342Z,23.90
2023-01-29T03:45:31.341Z,25.40
2023-01-29T03:49:18.254Z,23.80
2023-01-29T03:52:38.649Z,24.90
2023-01-29T03:55:58.988Z,25.20
2023-01-29T03:59:11.363Z,21.20
2023-01-29T04:02:42.059Z,24.90
2023-01-29T04:06:04.747Z,26.90
2023-01-29T04:09:16.199Z,26.00
2023-01-29T04:12:27.499Z,27.60
2023-01-29T04:15:35.804Z,22.80
2023-01-29T04:18:37.752Z,24.00
2023-01-29T04:21:48.321Z,24.30
2023-01-29T04:24:50.699Z,23.40
2023-01-29T04:28:08.063Z,23.50
2023-01-29T04:31:12.039Z,24.40
2023-01-29T04:34:28.632Z,24.70
2023-01-29T04:37:30.375Z,22.70
2023-01-29T04:40:44.408Z,22.40
2023-01-29T04:44:18.214Z,23.40
2023-01-29T04:47:53.411Z,21.40
2023-01-29T04:51:20.411Z,20.00
2023-01-29T04:54:30.915Z,21.20
2023-01-29T04:57:50.173Z,21.80
2023-01-29T05:00:53.615Z,27.10
2023-01-29T05:03:56.752Z,23.50
2023-01-29T05:07:04.026Z,22.60
2023-01-29T05:10:07.583Z,22.60
2023-01-29T05:13:12.880Z,23.20
2023-01-29T05:16:27.246Z,26.60
2023-01-29T05:19:28.631Z,32.40
2023-01-29T05:22:30.335Z,33.90
2023-01-29T05:25:32.761Z,41.50
2023-01-29T05:28:34.138Z,46.50
2023-01-29T05:31:35.550Z,42.00
2023-01-29T05:34:36.950Z,48.40
2023-01-29T05:37:38.377Z,46.30
2023-01-29T05:40:40.211Z,42.20
2023-01-29T05:43:41.539Z,39.20
2023-01-29T05:46:43.304Z,44.40
2023-01-29T05:49:44.753Z,48.50
2023-01-29T05:52:46.099Z,47.40
2023-01-29T05:55:47.932Z,51.50
2023-01-29T05:58:49.337Z,41.30
2023-01-29T06:01:50.729Z,70.30
2023-01-29T06:04:52.150Z,52.90
2023-01-29T06:07:53.520Z,47.30
2023-01-29T06:10:54.945Z,46.90
2023-01-29T06:13:56.359Z,45.20
2023-01-29T06:16:57.806Z,55.60
2023-01-29T06:19:59.163Z,50.20
2023-01-29T06:23:00.573Z,55.90
2023-01-29T06:26:11.655Z,58.10
2023-01-29T06:29:13.221Z,46.80
2023-01-29T06:32:14.554Z,53.70
2023-01-29T06:35:16.013Z,52.10
2023-01-29T06:38:17.397Z,53.50
2023-01-29T06:41:22.081Z,78.20
2023-01-29T06:44:23.495Z,111.60
2023-01-29T06:47:26.670Z,56.50
2023-01-29T06:50:27.998Z,55.90
2023-01-29T06:53:29.844Z,54.40
2023-01-29T06:56:31.254Z,54.50
2023-01-29T06:59:32.722Z,60.10
2023-01-29T07:02:34.149Z,56.90
2023-01-29T07:05:35.656Z,49.70
2023-01-29T07:08:38.735Z,48.90
2023-01-29T07:11:40.099Z,51.00
2023-01-29T07:14:41.427Z,42.70
2023-01-29T07:17:42.793Z,42.80
2023-01-29T07:20:44.162Z,42.60
2023-01-29T07:23:45.520Z,46.40
2023-01-29T07:26:46.869Z,47.60
2023-01-29T07:29:48.309Z,46.70
2023-01-29T07:32:49.669Z,49.60
2023-01-29T07:35:52.017Z,55.10
2023-01-29T07:38:53.388Z,69.30
2023-01-29T07:41:54.826Z,38.30
2023-01-29T07:44:57.708Z,40.50
2023-01-29T07:47:59.103Z,38.70
2023-01-29T07:51:00.607Z,32.80
2023-01-29T07:54:02.065Z,32.40
2023-01-29T07:57:03.444Z,34.00
2023-01-29T08:00:05.188Z,24.70
2023-01-29T08:03:16.450Z,21.60
2023-01-29T08:06:18.691Z,23.70
2023-01-29T08:09:20.056Z,21.70
2023-01-29T08:12:21.489Z,18.50
2023-01-29T08:15:23.526Z,21.10
2023-01-29T08:18:24.985Z,19.80
2023-01-29T08:21:26.355Z,23.40
2023-01-29T08:24:36.089Z,21.00
2023-01-29T08:27:49.236Z,28.20
2023-01-29T08:30:50.787Z,68.10
2023-01-29T08:33:56.580Z,40.30
2023-01-29T08:36:58.195Z,56.40
2023-01-29T08:39:59.578Z,176.50
2023-01-29T08:43:04.151Z,72.60
2023-01-29T08:46:07.911Z,57.60
2023-01-29T08:49:09.413Z,53.80
2023-01-29T08:52:10.792Z,38.70
2023-01-29T08:55:13.089Z,36.00
2023-01-29T08:58:14.487Z,38.70
2023-01-29T09:01:16.079Z,37.50
2023-01-29T09:04:17.525Z,54.60
2023-01-29T09:07:21.146Z,144.30
2023-01-29T09:10:22.621Z,82.90
2023-01-29T09:13:23.965Z,84.50
2023-01-29T09:16:25.458Z,58.90
2023-01-29T09:19:26.935Z,68.40
2023-01-29T09:22:28.348Z,61.30
2023-01-29T09:25:29.731Z,21.20
2023-01-29T09:28:31.108Z,20.70
2023-01-29T09:31:33.001Z,18.80
2023-01-29T09:34:34.772Z,19.40
2023-01-29T09:37:36.269Z,17.80
2023-01-29T09:40:47.768Z,20.90
2023-01-29T09:43:54.768Z,18.10
2023-01-29T09:46:59.487Z,20.20
2023-01-29T09:50:06.382Z,21.40
2023-01-29T09:53:18.571Z,20.60
2023-01-29T09:56:22.995Z,19.60
2023-01-29T09:59:27.283Z,19.40
2023-01-29T10:02:47.611Z,20.20
2023-01-29T10:06:08.638Z,18.40
2023-01-29T10:09:35.090Z,18.10
2023-01-29T10:13:02.221Z,14.00
2023-01-29T10:16:22.277Z,10.80
2023-01-29T10:19:51.873Z,13.40
2023-01-29T10:23:20.990Z,17.10
2023-01-29T10:26:25.757Z,15.10
2023-01-29T10:29:30.251Z,12.70
2023-01-29T10:35:38.745Z,14.40
2023-01-29T10:38:44.958Z,10.30
2023-01-29T10:42:02.952Z,12.20
2023-01-29T10:45:09.875Z,12.90
2023-01-29T10:48:17.521Z,11.90
2023-01-29T10:51:35.999Z,11.30
2023-01-29T10:54:56.074Z,12.40
2023-01-29T10:58:07.681Z,12.00
2023-01-29T11:01:10.313Z,9.70
2023-01-29T11:04:13.755Z,13.90
2023-01-29T11:07:17.760Z,10.90
2023-01-29T11:10:22.771Z,11.40
2023-01-29T11:13:30.588Z,13.30
2023-01-29T11:16:43.728Z,15.00
2023-01-29T11:19:47.890Z,11.40
2023-01-29T11:22:54.997Z,14.00
2023-01-29T11:25:58.521Z,15.10
2023-01-29T11:28:59.991Z,14.30
2023-01-29T11:32:05.802Z,13.80
2023-01-29T11:35:13.283Z,14.60
2023-01-29T11:38:28.227Z,15.30
2023-01-29T11:41:29.982Z,13.00
2023-01-29T11:44:35.793Z,12.30
2023-01-29T11:47:38.176Z,13.90
2023-01-29T11:50:40.304Z,16.00
2023-01-29T11:53:49.003Z,12.90
2023-01-29T11:56:51.127Z,16.10
2023-01-29T11:59:54.829Z,15.70
2023-01-29T12:02:58.974Z,51.30
2023-01-29T12:06:08.370Z,19.80
2023-01-29T12:09:16.980Z,12.40
2023-01-29T12:12:21.654Z,13.00
2023-01-29T12:15:26.185Z,73.10
2023-01-29T12:21:50.379Z,57.90
2023-01-29T12:25:00.804Z,99.30
2023-01-29T12:28:24.193Z,13.00
2023-01-29T12:31:31.414Z,14.50
2023-01-29T12:34:48.432Z,15.00
2023-01-29T12:38:05.244Z,12.20
2023-01-29T12:41:27.901Z,13.10
2023-01-29T12:44:56.756Z,14.50
2023-01-29T12:48:07.184Z,13.20
2023-01-29T12:51:17.081Z,14.60
2023-01-29T12:54:27.063Z,19.50
2023-01-29T12:57:34.292Z,15.20
2023-01-29T13:00:40.009Z,12.40
2023-01-29T13:04:02.977Z,13.90
2023-01-29T13:07:32.582Z,13.40
2023-01-29T13:10:42.489Z,27.20
2023-01-29T13:13:54.344Z,17.70
2023-01-29T13:17:07.682Z,24.30
2023-01-29T13:20:23.970Z,39.00
2023-01-29T13:23:33.619Z,16.20
2023-01-29T13:26:35.843Z,16.40
2023-01-29T13:29:37.391Z,11.70
2023-01-29T13:32:38.971Z,29.10
2023-01-29T13:35:42.897Z,21.50
2023-01-29T13:38:44.503Z,17.50
2023-01-29T13:41:46.181Z,18.40
2023-01-29T13:44:54.754Z,26.60
2023-01-29T13:48:27.035Z,17.90
2023-01-29T13:51:35.870Z,18.80
2023-01-29T13:54:37.318Z,25.40
2023-01-29T13:57:38.745Z,18.50
2023-01-29T14:00:40.171Z,23.20
2023-01-29T14:04:03.326Z,17.30
2023-01-29T14:07:38.742Z,16.60
2023-01-29T14:10:41.985Z,20.70
2023-01-29T14:13:48.433Z,20.80
2023-01-29T14:16:50.067Z,17.80
2023-01-29T14:19:57.340Z,15.40
2023-01-29T14:23:00.460Z,21.40
2023-01-29T14:26:05.202Z,17.10
2023-01-29T14:29:16.566Z,23.80
2023-01-29T14:32:24.356Z,33.00
2023-01-29T14:35:29.944Z,47.20
2023-01-29T14:38:32.566Z,58.90
2023-01-29T14:41:35.589Z,38.60
2023-01-29T14:44:47.882Z,40.90
2023-01-29T14:47:49.770Z,42.40
2023-01-29T14:50:55.282Z,50.20
2023-01-29T14:54:27.474Z,43.70
2023-01-29T14:57:30.480Z,40.90
2023-01-29T15:00:43.003Z,43.30
2023-01-29T15:03:49.173Z,68.80
2023-01-29T15:07:03.999Z,51.50
2023-01-29T15:10:22.822Z,51.20
2023-01-29T15:13:37.454Z,26.10
2023-01-29T15:17:16.417Z,33.30
2023-01-29T15:20:33.103Z,24.80
2023-01-29T15:23:34.535Z,24.30
2023-01-29T15:26:36.311Z,18.30
2023-01-29T15:29:38.985Z,15.70
2023-01-29T15:32:40.528Z,14.70
2023-01-29T15:35:42.709Z,11.90
2023-01-29T15:38:44.196Z,15.00
2023-01-29T15:41:45.896Z,16.80
2023-01-29T15:44:47.601Z,17.50
2023-01-29T15:47:50.003Z,15.90
2023-01-29T15:50:54.533Z,17.70
2023-01-29T15:57:00.842Z,13.70
2023-01-29T16:00:04.371Z,14.20
2023-01-29T16:03:14.928Z,15.00
2023-01-29T16:06:16.691Z,12.80
2023-01-29T16:09:22.969Z,14.80
2023-01-29T16:12:24.791Z,12.90
2023-01-29T16:15:37.849Z,13.00
2023-01-29T16:18:54.224Z,38.80
2023-01-29T16:22:03.385Z,16.00
2023-01-29T16:25:10.627Z,14.70
2023-01-29T16:28:12.276Z,15.60
2023-01-29T16:31:21.902Z,11.60
2023-01-29T16:34:32.222Z,13.50
2023-01-29T16:37:35.706Z,15.80
2023-01-29T16:40:38.183Z,11.90
2023-01-29T16:43:47.518Z,13.20
2023-01-29T16:46:52.196Z,13.00
2023-01-29T16:50:14.786Z,13.60
2023-01-29T16:53:22.616Z,18.40
2023-01-29T16:56:27.314Z,14.20
2023-01-29T16:59:32.562Z,14.90
2023-01-29T17:02:38.682Z,15.20
2023-01-29T17:05:40.696Z,14.80
2023-01-29T17:08:42.726Z,20.20
2023-01-29T17:11:44.183Z,19.20
2023-01-29T17:14:58.254Z,18.90
2023-01-29T17:18:00.165Z,15.30
2023-01-29T17:21:01.554Z,15.90
2023-01-29T17:24:03.148Z,19.70
2023-01-29T17:27:04.561Z,56.20
2023-01-29T17:30:07.227Z,18.40
2023-01-29T17:33:14.093Z,18.50
2023-01-29T17:36:17.058Z,15.40
2023-01-29T17:39:23.503Z,17.80
2023-01-29T17:42:25.602Z,15.30
2023-01-29T17:45:27.008Z,13.70
2023-01-29T17:48:29.600Z,16.10
2023-01-29T17:51:31.007Z,17.20
2023-01-29T17:54:32.623Z,22.10
2023-01-29T17:57:33.990Z,18.10
2023-01-29T18:00:35.402Z,16.80
2023-01-29T18:03:37.013Z,17.20
2023-01-29T18:06:40.516Z,17.30
2023-01-29T18:09:43.536Z,16.40
2023-01-29T18:12:45.189Z,17.70
2023-01-29T18:15:46.649Z,16.20
2023-01-29T18:18:49.530Z,16.50
2023-01-29T18:21:51.778Z,13.10
2023-01-29T18:24:53.267Z,17.40
2023-01-29T18:27:54.676Z,13.70
2023-01-29T18:30:56.412Z,17.40
2023-01-29T18:33:57.971Z,15.30
2023-01-29T18:36:59.612Z,16.70
2023-01-29T18:40:01.140Z,17.40
2023-01-29T18:43:03.607Z,19.60
2023-01-29T18:46:06.158Z,17.10
2023-01-29T18:49:08.072Z,16.30
2023-01-29T18:52:09.516Z,15.90
2023-01-29T18:55:11.023Z,15.90
2023-01-29T18:58:26.558Z,15.40
2023-01-29T19:01:33.848Z,16.10
2023-01-29T19:04:35.472Z,16.70
2023-01-29T19:07:37.090Z,18.50
2023-01-29T19:10:40.048Z,19.60
2023-01-29T19:13:45.026Z,19.60
2023-01-29T19:16:46.644Z,17.80
2023-01-29T19:19:48.854Z,20.30
2023-01-29T19:22:50.405Z,22.30
2023-01-29T19:25:51.916Z,21.10
2023-01-29T19:28:53.425Z,19.60
2023-01-29T19:31:54.895Z,21.50
2023-01-29T19:34:57.199Z,21.00
2023-01-29T19:37:59.341Z,20.90
2023-01-29T19:41:00.886Z,21.00
2023-01-29T19:44:02.457Z,17.90
2023-01-29T19:47:04.244Z,19.90
2023-01-29T19:50:07.224Z,18.20
2023-01-29T19:53:09.263Z,18.80
2023-01-29T19:56:14.769Z,18.90
2023-01-29T19:59:16.157Z,21.20
2023-01-29T20:02:17.668Z,20.40
2023-01-29T20:05:19.864Z,20.80
2023-01-29T20:08:23.141Z,16.80
2023-01-29T20:11:24.663Z,19.40
2023-01-29T20:14:26.142Z,16.70
2023-01-29T20:17:27.499Z,19.50
2023-01-29T20:20:32.684Z,16.60
2023-01-29T20:23:38.011Z,19.60
2023-01-29T20:26:40.173Z,18.70
2023-01-29T20:29:42.991Z,19.80
2023-01-29T20:32:44.404Z,25.40
2023-01-29T20:35:52.954Z,20.00
2023-01-29T20:38:54.501Z,18.10
2023-01-29T20:41:56.624Z,17.80
2023-01-29T20:44:58.080Z,18.80
2023-01-29T20:47:59.546Z,19.60
2023-01-29T20:51:07.405Z,18.00
2023-01-29T20:54:09.335Z,18.50
2023-01-29T20:57:10.818Z,19.40
2023-01-29T21:00:14.158Z,17.60
2023-01-29T21:03:15.546Z,18.90
2023-01-29T21:06:16.913Z,17.50
2023-01-29T21:09:19.283Z,15.80
2023-01-29T21:12:20.667Z,16.80
2023-01-29T21:15:22.823Z,18.40
2023-01-29T21:18:27.681Z,17.10
2023-01-29T21:21:29.103Z,16.90
2023-01-29T21:24:30.505Z,17.80
2023-01-29T21:27:31.943Z,16.00
2023-01-29T21:30:33.750Z,15.90
2023-01-29T21:33:35.820Z,16.50
2023-01-29T21:36:37.330Z,15.90
2023-01-29T21:39:39.031Z,16.10
2023-01-29T21:43:00.199Z,13.90
2023-01-29T21:46:04.320Z,19.40
2023-01-29T21:49:05.846Z,16.30
2023-01-29T21:52:10.417Z,24.80
2023-01-29T21:55:11.779Z,39.70
2023-01-29T21:58:14.550Z,112.80
2023-01-29T22:01:36.358Z,121.80
2023-01-29T22:04:37.763Z,112.50
2023-01-29T22:07:39.131Z,35.60
2023-01-29T22:10:40.990Z,26.30
2023-01-29T22:13:42.523Z,20.90
2023-01-29T22:16:44.959Z,20.20
2023-01-29T22:19:46.802Z,19.00
2023-01-29T22:22:48.279Z,17.50
2023-01-29T22:25:49.640Z,16.50
2023-01-29T22:28:51.036Z,19.20
2023-01-29T22:31:52.443Z,19.30
2023-01-29T22:34:54.016Z,16.40
2023-01-29T22:37:55.358Z,18.10
2023-01-29T22:40:59.695Z,18.30
2023-01-29T22:47:02.559Z,15.10
2023-01-29T22:50:05.597Z,16.40
2023-01-29T22:53:13.801Z,16.70
2023-01-29T22:56:15.941Z,19.40
2023-01-29T22:59:17.364Z,16.90
2023-01-29T23:02:18.734Z,16.80
2023-01-29T23:05:20.398Z,25.80
2023-01-29T23:08:21.821Z,29.30
2023-01-29T23:11:23.295Z,29.70
2023-01-29T23:14:24.776Z,30.30
2023-01-29T23:17:26.202Z,23.90
2023-01-29T23:20:27.645Z,21.50
2023-01-29T23:23:29.678Z,66.20
2023-01-29T23:26:49.933Z,29.30
2023-01-29T23:29:51.356Z,18.40
2023-01-29T23:32:52.707Z,18.80
2023-01-29T23:35:54.109Z,19.10
2023-01-29T23:38:55.474Z,20.50
2023-01-29T23:41:56.842Z,19.40
2023-01-29T23:44:58.153Z,24.60
2023-01-29T23:47:59.541Z,19.20
2023-01-29T23:51:01.212Z,25.70
2023-01-29T23:54:03.373Z,23.60
2023-01-29T23:57:04.780Z,20.00
